createdAt,value
2018-10-15T00:02:21.907Z,18.47
2018-10-15T00:07:25.639Z,18.36
2018-10-15T00:12:28.906Z,18.32
2018-10-15T00:17:32.194Z,18.30
2018-10-15T00:22:35.549Z,18.31
2018-10-15T00:27:38.865Z,18.29
2018-10-15T00:32:42.938Z,18.24
2018-10-15T00:37:46.184Z,18.18
2018-10-15T00:42:49.489Z,18.12
2018-10-15T00:47:52.905Z,17.98
2018-10-15T00:52:56.217Z,17.80
2018-10-15T00:57:59.520Z,17.74
2018-10-15T01:03:02.881Z,17.65
2018-10-15T01:08:06.256Z,17.54
2018-10-15T01:13:09.515Z,17.48
2018-10-15T01:18:12.827Z,16.92
2018-10-15T01:23:16.182Z,16.80
2018-10-15T01:28:19.478Z,16.99
2018-10-15T01:33:22.784Z,17.03
2018-10-15T01:38:26.125Z,17.03
2018-10-15T01:43:29.421Z,17.04
2018-10-15T01:48:32.838Z,17.03
2018-10-15T01:53:36.122Z,17.00
2018-10-15T01:58:39.394Z,16.96
2018-10-15T02:03:42.659Z,16.83
2018-10-15T02:08:45.944Z,16.78
2018-10-15T02:13:49.347Z,16.82
2018-10-15T02:18:52.668Z,16.80
2018-10-15T02:23:56.201Z,16.66
2018-10-15T02:28:59.527Z,16.69
2018-10-15T02:34:02.800Z,16.59
2018-10-15T02:39:10.876Z,16.49
2018-10-15T02:44:14.172Z,16.44
2018-10-15T02:49:17.728Z,16.38
2018-10-15T02:54:21.088Z,16.26
2018-10-15T02:59:24.434Z,16.35
2018-10-15T03:04:27.695Z,16.51
2018-10-15T03:09:31.044Z,16.46
2018-10-15T03:14:34.379Z,16.43
2018-10-15T03:19:37.886Z,16.43
2018-10-15T03:24:41.318Z,16.53
2018-10-15T03:29:44.650Z,16.59
2018-10-15T03:34:47.980Z,16.58
2018-10-15T03:39:51.231Z,16.62
2018-10-15T03:44:54.647Z,16.55
2018-10-15T03:49:57.982Z,16.46
2018-10-15T03:55:01.251Z,16.38
2018-10-15T04:00:05.595Z,16.14
2018-10-15T04:05:08.937Z,16.08
2018-10-15T04:10:12.490Z,16.03
2018-10-15T04:15:15.991Z,15.92
2018-10-15T04:20:19.315Z,15.77
2018-10-15T04:25:23.140Z,15.85
2018-10-15T04:30:26.420Z,15.93
2018-10-15T04:35:29.752Z,16.08
2018-10-15T04:40:33.073Z,16.16
2018-10-15T04:45:36.375Z,16.12
2018-10-15T04:50:39.675Z,16.02
2018-10-15T04:55:42.993Z,15.99
2018-10-15T05:00:47.177Z,16.01
2018-10-15T05:05:50.495Z,15.94
2018-10-15T05:26:33.188Z,15.68
2018-10-15T05:31:36.487Z,15.80
2018-10-15T05:36:39.765Z,15.86
2018-10-15T05:41:43.345Z,15.74
2018-10-15T05:46:47.755Z,15.76
2018-10-15T05:51:51.080Z,15.72
2018-10-15T05:56:54.422Z,15.76
2018-10-15T06:01:57.827Z,15.73
2018-10-15T06:07:01.146Z,15.75
2018-10-15T06:12:04.901Z,15.80
2018-10-15T06:17:08.142Z,15.84
2018-10-15T06:22:11.412Z,15.88
2018-10-15T06:27:14.803Z,15.83
2018-10-15T06:32:18.147Z,15.75
2018-10-15T06:37:21.561Z,15.84
2018-10-15T06:42:24.792Z,15.96
2018-10-15T06:47:28.086Z,16.05
2018-10-15T06:52:31.371Z,16.17
2018-10-15T06:57:35.119Z,16.29
2018-10-15T07:02:39.173Z,16.45
2018-10-15T07:07:42.507Z,16.61
2018-10-15T07:12:45.737Z,16.85
2018-10-15T07:17:49.403Z,17.03
2018-10-15T07:22:52.720Z,17.29
2018-10-15T07:27:56.218Z,17.62
2018-10-15T07:32:59.645Z,17.83
2018-10-15T07:38:02.995Z,18.08
2018-10-15T07:43:06.395Z,18.30
2018-10-15T07:48:09.810Z,18.54
2018-10-15T07:53:13.218Z,18.81
2018-10-15T07:58:16.694Z,19.02
2018-10-15T08:03:20.181Z,19.27
2018-10-15T08:08:23.538Z,19.49
2018-10-15T08:13:26.833Z,19.76
2018-10-15T08:18:30.245Z,19.96
2018-10-15T08:23:33.620Z,20.23
2018-10-15T08:28:37.016Z,20.55
2018-10-15T08:33:40.364Z,20.82
2018-10-15T08:38:43.707Z,20.83
2018-10-15T08:43:47.005Z,20.86
2018-10-15T08:48:50.315Z,20.88
2018-10-15T08:53:53.649Z,20.99
2018-10-15T08:58:57.100Z,21.08
2018-10-15T09:04:00.416Z,21.32
2018-10-15T09:09:06.153Z,21.65
2018-10-15T09:14:09.339Z,21.83
2018-10-15T09:19:12.830Z,21.24
2018-10-15T09:24:16.201Z,22.28
2018-10-15T09:29:19.559Z,22.48
2018-10-15T09:34:22.900Z,22.71
2018-10-15T09:39:26.253Z,22.94
2018-10-15T09:44:29.671Z,23.01
2018-10-15T09:49:33.096Z,23.10
2018-10-15T09:54:36.477Z,23.26
2018-10-15T09:59:39.935Z,23.42
2018-10-15T10:04:43.306Z,23.64
2018-10-15T10:09:47.116Z,23.79
2018-10-15T10:14:50.515Z,23.88
2018-10-15T10:19:53.943Z,24.04
2018-10-15T10:24:57.383Z,24.24
2018-10-15T10:30:00.766Z,24.41
2018-10-15T10:35:26.658Z,24.58
2018-10-15T10:40:30.018Z,24.68
2018-10-15T10:45:33.411Z,24.80
2018-10-15T10:50:36.820Z,24.93
2018-10-15T10:55:40.212Z,24.93
2018-10-15T11:00:43.465Z,24.95
2018-10-15T11:05:47.121Z,25.06
2018-10-15T11:10:50.523Z,25.14
2018-10-15T11:15:53.908Z,25.29
2018-10-15T11:20:57.360Z,25.44
2018-10-15T11:26:00.746Z,25.56
2018-10-15T11:31:04.411Z,25.77
2018-10-15T11:36:07.876Z,25.90
2018-10-15T11:41:11.239Z,26.00
2018-10-15T11:46:14.633Z,26.13
2018-10-15T11:51:18.047Z,26.21
2018-10-15T11:56:21.493Z,26.33
2018-10-15T12:01:24.978Z,26.46
2018-10-15T12:06:28.385Z,26.57
2018-10-15T12:11:31.767Z,26.60
2018-10-15T12:16:35.169Z,26.67
2018-10-15T12:21:38.630Z,26.75
2018-10-15T12:26:42.129Z,26.91
2018-10-15T12:31:45.522Z,26.88
2018-10-15T12:36:48.778Z,26.96
2018-10-15T12:41:52.147Z,26.98
2018-10-15T12:46:55.624Z,27.01
2018-10-15T12:51:59.026Z,27.05
2018-10-15T12:57:02.473Z,27.09
2018-10-15T13:02:05.910Z,27.15
2018-10-15T13:07:09.270Z,27.21
2018-10-15T13:12:12.658Z,27.35
2018-10-15T13:17:16.059Z,27.39
2018-10-15T13:22:19.570Z,27.50
2018-10-15T13:27:22.919Z,27.28
2018-10-15T13:32:26.302Z,27.48
2018-10-15T13:37:29.761Z,27.56
2018-10-15T13:42:33.200Z,27.57
2018-10-15T13:47:36.699Z,27.55
2018-10-15T13:52:40.844Z,27.61
2018-10-15T13:57:44.214Z,27.26
2018-10-15T14:02:47.972Z,27.66
2018-10-15T14:07:51.412Z,27.66
2018-10-15T14:12:54.780Z,26.79
2018-10-15T14:17:58.266Z,27.47
2018-10-15T14:23:01.849Z,27.58
2018-10-15T14:28:05.237Z,27.54
2018-10-15T14:33:08.638Z,27.15
2018-10-15T14:38:11.987Z,27.45
2018-10-15T14:43:15.411Z,27.38
2018-10-15T14:48:18.802Z,27.40
2018-10-15T14:53:22.177Z,27.41
2018-10-15T14:58:25.558Z,27.44
2018-10-15T15:03:28.796Z,27.42
2018-10-15T15:08:32.193Z,27.36
2018-10-15T15:14:39.360Z,27.32
2018-10-15T15:19:42.827Z,27.23
2018-10-15T15:24:46.224Z,27.17
2018-10-15T15:29:49.697Z,26.85
2018-10-15T15:34:53.030Z,26.60
2018-10-15T15:39:56.378Z,26.40
2018-10-15T15:44:59.745Z,26.17
2018-10-15T15:50:03.246Z,25.92
2018-10-15T15:55:07.624Z,25.67
2018-10-15T16:00:12.401Z,25.49
2018-10-15T16:05:15.727Z,25.28
2018-10-15T16:10:19.104Z,25.05
2018-10-15T16:15:22.432Z,24.84
2018-10-15T16:20:25.845Z,24.48
2018-10-15T16:25:29.221Z,24.22
2018-10-15T16:30:32.735Z,24.01
2018-10-15T16:35:36.162Z,23.80
2018-10-15T16:40:39.581Z,23.69
2018-10-15T16:45:42.954Z,23.55
2018-10-15T16:50:46.426Z,23.17
2018-10-15T16:55:49.829Z,23.19
2018-10-15T17:00:53.524Z,23.05
2018-10-15T17:05:56.943Z,23.03
2018-10-15T17:11:00.488Z,22.95
2018-10-15T17:16:04.039Z,22.85
2018-10-15T17:21:07.473Z,22.65
2018-10-15T17:26:11.045Z,22.43
2018-10-15T17:31:14.345Z,22.35
2018-10-15T17:36:17.763Z,22.23
2018-10-15T17:41:21.154Z,22.07
2018-10-15T17:46:24.606Z,22.02
2018-10-15T17:51:28.181Z,21.91
2018-10-15T17:56:31.751Z,21.85
2018-10-15T18:01:35.219Z,21.73
2018-10-15T18:06:38.818Z,21.50
2018-10-15T18:11:42.436Z,21.35
2018-10-15T18:16:46.145Z,20.86
2018-10-15T18:21:49.504Z,21.23
2018-10-15T18:26:52.886Z,21.10
2018-10-15T18:31:56.741Z,20.93
2018-10-15T18:37:00.089Z,20.80
2018-10-15T18:42:03.488Z,20.67
2018-10-15T18:47:06.889Z,20.55
2018-10-15T18:52:10.419Z,20.36
2018-10-15T18:57:14.262Z,20.23
2018-10-15T19:02:18.568Z,20.17
2018-10-15T19:07:22.713Z,20.12
2018-10-15T19:12:27.141Z,20.03
2018-10-15T19:17:31.167Z,19.93
2018-10-15T19:22:35.363Z,19.77
2018-10-15T19:27:39.631Z,19.62
2018-10-15T19:32:44.116Z,19.53
2018-10-15T19:37:47.539Z,19.48
2018-10-15T19:42:50.956Z,19.46
2018-10-15T19:47:54.467Z,19.40
2018-10-15T19:52:57.814Z,19.29
2018-10-15T19:58:03.314Z,19.19
2018-10-15T20:03:08.126Z,19.14
2018-10-15T20:08:15.055Z,19.06
2018-10-15T20:13:21.471Z,18.95
2018-10-15T20:18:28.096Z,18.84
2018-10-15T20:23:32.698Z,18.72
2018-10-15T20:28:38.681Z,18.61
2018-10-15T20:33:42.155Z,18.58
2018-10-15T20:38:46.802Z,18.53
2018-10-15T20:43:49.995Z,18.47
2018-10-15T20:48:53.131Z,18.35
2018-10-15T20:53:56.611Z,18.26
2018-10-15T20:59:00.088Z,18.27
2018-10-15T21:09:13.085Z,18.21
2018-10-15T21:14:18.231Z,18.03
2018-10-15T21:19:21.709Z,17.88
2018-10-15T21:24:25.230Z,17.92
2018-10-15T21:29:28.787Z,17.89
2018-10-15T21:34:58.225Z,17.93
2018-10-15T21:40:01.763Z,17.89
2018-10-15T21:45:06.241Z,17.69
2018-10-15T21:50:11.273Z,17.63
2018-10-15T21:55:14.752Z,17.57
2018-10-15T22:00:18.224Z,17.64
2018-10-15T22:05:21.835Z,17.72
2018-10-15T22:10:30.808Z,17.54
2018-10-15T22:15:34.197Z,17.46
2018-10-15T22:20:37.610Z,17.24
2018-10-15T22:25:40.987Z,17.31
2018-10-15T22:30:44.431Z,17.31
2018-10-15T22:35:47.816Z,17.25
2018-10-15T22:40:51.181Z,17.28
2018-10-15T22:45:54.560Z,17.25
2018-10-15T22:50:57.963Z,17.19
2018-10-15T22:56:01.416Z,17.07
2018-10-15T23:01:05.126Z,16.97
2018-10-15T23:06:08.544Z,16.92
2018-10-15T23:11:11.916Z,16.79
2018-10-15T23:16:15.412Z,16.75
2018-10-15T23:21:18.713Z,16.82
2018-10-15T23:26:21.970Z,16.87
2018-10-15T23:31:27.369Z,16.80
2018-10-15T23:36:30.861Z,16.62
2018-10-15T23:41:34.298Z,16.46
2018-10-15T23:46:37.719Z,16.45
2018-10-15T23:51:41.108Z,16.05
2018-10-15T23:56:44.516Z,16.44
